sensor_id;sensor_type;location;lat;lon;timestamp;P1;durP1;ratioP1;P2;durP2;ratioP2
25932;SDS011;13731;51.166;4.474;2023-05-17T00:01:49;62.63;;;58.10;;
25932;SDS011;13731;51.166;4.474;2023-05-17T00:04:15;61.35;;;56.50;;
25932;SDS011;13731;51.166;4.474;2023-05-17T00:06:41;57.67;;;53.58;;
25932;SDS011;13731;51.166;4.474;2023-05-17T00:09:07;64.05;;;59.55;;
25932;SDS011;13731;51.166;4.474;2023-05-17T00:11:33;57.97;;;53.72;;
25932;SDS011;13731;51.166;4.474;2023-05-17T00:14:00;61.75;;;57.38;;
25932;SDS011;13731;51.166;4.474;2023-05-17T00:16:26;65.15;;;60.75;;
25932;SDS011;13731;51.166;4.474;2023-05-17T00:18:52;64.65;;;60.35;;
25932;SDS011;13731;51.166;4.474;2023-05-17T00:21:18;62.53;;;57.60;;
25932;SDS011;13731;51.166;4.474;2023-05-17T00:23:43;62.55;;;58.63;;
25932;SDS011;13731;51.166;4.474;2023-05-17T00:26:09;60.50;;;56.20;;
25932;SDS011;13731;51.166;4.474;2023-05-17T00:28:35;57.40;;;53.65;;
25932;SDS011;13731;51.166;4.474;2023-05-17T00:31:01;59.03;;;55.42;;
25932;SDS011;13731;51.166;4.474;2023-05-17T00:33:28;56.75;;;52.22;;
25932;SDS011;13731;51.166;4.474;2023-05-17T00:35:54;56.58;;;52.15;;
25932;SDS011;13731;51.166;4.474;2023-05-17T00:38:19;56.00;;;51.90;;
25932;SDS011;13731;51.166;4.474;2023-05-17T00:40:48;58.35;;;54.60;;
25932;SDS011;13731;51.166;4.474;2023-05-17T00:43:14;56.50;;;52.45;;
25932;SDS011;13731;51.166;4.474;2023-05-17T00:45:40;67.35;;;62.97;;
25932;SDS011;13731;51.166;4.474;2023-05-17T00:48:06;70.97;;;65.82;;
25932;SDS011;13731;51.166;4.474;2023-05-17T00:50:31;68.13;;;63.85;;
25932;SDS011;13731;51.166;4.474;2023-05-17T00:52:58;62.28;;;58.25;;
25932;SDS011;13731;51.166;4.474;2023-05-17T00:55:25;63.08;;;59.28;;
25932;SDS011;13731;51.166;4.474;2023-05-17T00:57:51;55.30;;;51.20;;
25932;SDS011;13731;51.166;4.474;2023-05-17T01:00:17;48.08;;;44.58;;
25932;SDS011;13731;51.166;4.474;2023-05-17T01:02:43;46.50;;;43.30;;
25932;SDS011;13731;51.166;4.474;2023-05-17T01:05:12;48.30;;;44.67;;
25932;SDS011;13731;51.166;4.474;2023-05-17T01:07:39;44.72;;;41.58;;
25932;SDS011;13731;51.166;4.474;2023-05-17T01:10:05;50.08;;;46.67;;
25932;SDS011;13731;51.166;4.474;2023-05-17T01:15:30;48.63;;;44.53;;
25932;SDS011;13731;51.166;4.474;2023-05-17T01:18:08;48.72;;;45.25;;
25932;SDS011;13731;51.166;4.474;2023-05-17T01:20:43;50.70;;;46.88;;
25932;SDS011;13731;51.166;4.474;2023-05-17T01:26:16;50.60;;;47.42;;
25932;SDS011;13731;51.166;4.474;2023-05-17T01:28:46;54.92;;;51.13;;
25932;SDS011;13731;51.166;4.474;2023-05-17T01:31:18;60.72;;;56.58;;
25932;SDS011;13731;51.166;4.474;2023-05-17T01:33:45;66.40;;;62.03;;
25932;SDS011;13731;51.166;4.474;2023-05-17T01:36:11;62.30;;;57.83;;
25932;SDS011;13731;51.166;4.474;2023-05-17T01:38:37;64.55;;;60.22;;
25932;SDS011;13731;51.166;4.474;2023-05-17T01:51:55;54.88;;;51.20;;
25932;SDS011;13731;51.166;4.474;2023-05-17T01:54:25;55.28;;;51.15;;
25932;SDS011;13731;51.166;4.474;2023-05-17T01:56:58;57.17;;;53.53;;
25932;SDS011;13731;51.166;4.474;2023-05-17T01:59:29;60.50;;;56.60;;
25932;SDS011;13731;51.166;4.474;2023-05-17T02:01:58;68.97;;;64.53;;
25932;SDS011;13731;51.166;4.474;2023-05-17T02:04:30;73.40;;;68.57;;
25932;SDS011;13731;51.166;4.474;2023-05-17T02:06:59;70.13;;;65.68;;
25932;SDS011;13731;51.166;4.474;2023-05-17T02:09:26;77.68;;;72.43;;
25932;SDS011;13731;51.166;4.474;2023-05-17T02:11:52;72.80;;;67.97;;
25932;SDS011;13731;51.166;4.474;2023-05-17T02:14:18;74.45;;;69.63;;
25932;SDS011;13731;51.166;4.474;2023-05-17T02:16:43;79.78;;;74.15;;
25932;SDS011;13731;51.166;4.474;2023-05-17T02:19:11;74.78;;;69.95;;
25932;SDS011;13731;51.166;4.474;2023-05-17T02:21:38;68.72;;;64.80;;
25932;SDS011;13731;51.166;4.474;2023-05-17T02:24:04;74.80;;;70.50;;
25932;SDS011;13731;51.166;4.474;2023-05-17T02:26:30;73.03;;;68.53;;
25932;SDS011;13731;51.166;4.474;2023-05-17T02:28:56;76.32;;;71.45;;
25932;SDS011;13731;51.166;4.474;2023-05-17T02:31:22;82.93;;;77.93;;
25932;SDS011;13731;51.166;4.474;2023-05-17T02:33:51;85.72;;;80.40;;
25932;SDS011;13731;51.166;4.474;2023-05-17T02:36:21;77.25;;;72.88;;
25932;SDS011;13731;51.166;4.474;2023-05-17T02:38:47;77.05;;;72.65;;
25932;SDS011;13731;51.166;4.474;2023-05-17T02:41:13;79.70;;;74.68;;
25932;SDS011;13731;51.166;4.474;2023-05-17T02:43:38;83.55;;;78.50;;
25932;SDS011;13731;51.166;4.474;2023-05-17T02:46:04;63.08;;;59.03;;
25932;SDS011;13731;51.166;4.474;2023-05-17T02:48:30;60.80;;;56.97;;
25932;SDS011;13731;51.166;4.474;2023-05-17T02:50:56;62.63;;;58.83;;
25932;SDS011;13731;51.166;4.474;2023-05-17T02:53:22;64.70;;;60.80;;
25932;SDS011;13731;51.166;4.474;2023-05-17T02:55:48;74.97;;;70.32;;
25932;SDS011;13731;51.166;4.474;2023-05-17T02:58:14;72.22;;;67.65;;
25932;SDS011;13731;51.166;4.474;2023-05-17T03:00:43;67.72;;;63.72;;
25932;SDS011;13731;51.166;4.474;2023-05-17T03:03:11;70.40;;;66.10;;
25932;SDS011;13731;51.166;4.474;2023-05-17T03:05:36;71.55;;;67.50;;
25932;SDS011;13731;51.166;4.474;2023-05-17T03:08:02;70.13;;;66.18;;
25932;SDS011;13731;51.166;4.474;2023-05-17T03:10:29;71.07;;;66.88;;
25932;SDS011;13731;51.166;4.474;2023-05-17T03:12:55;74.47;;;70.03;;
25932;SDS011;13731;51.166;4.474;2023-05-17T03:15:23;81.45;;;76.93;;
25932;SDS011;13731;51.166;4.474;2023-05-17T03:17:51;81.20;;;76.53;;
25932;SDS011;13731;51.166;4.474;2023-05-17T03:20:18;76.65;;;71.57;;
25932;SDS011;13731;51.166;4.474;2023-05-17T03:22:45;80.47;;;75.30;;
25932;SDS011;13731;51.166;4.474;2023-05-17T03:25:12;80.45;;;75.43;;
25932;SDS011;13731;51.166;4.474;2023-05-17T03:27:38;76.05;;;71.53;;
25932;SDS011;13731;51.166;4.474;2023-05-17T03:30:05;78.10;;;73.25;;
25932;SDS011;13731;51.166;4.474;2023-05-17T03:32:33;78.43;;;73.60;;
25932;SDS011;13731;51.166;4.474;2023-05-17T03:34:59;68.82;;;64.80;;
25932;SDS011;13731;51.166;4.474;2023-05-17T03:37:26;68.00;;;63.80;;
25932;SDS011;13731;51.166;4.474;2023-05-17T03:39:51;73.88;;;69.00;;
25932;SDS011;13731;51.166;4.474;2023-05-17T03:42:17;71.90;;;66.78;;
25932;SDS011;13731;51.166;4.474;2023-05-17T03:44:43;68.65;;;64.43;;
25932;SDS011;13731;51.166;4.474;2023-05-17T03:47:10;76.90;;;72.70;;
25932;SDS011;13731;51.166;4.474;2023-05-17T03:49:36;80.18;;;75.15;;
25932;SDS011;13731;51.166;4.474;2023-05-17T03:52:01;69.60;;;65.07;;
25932;SDS011;13731;51.166;4.474;2023-05-17T03:54:27;89.22;;;84.03;;
25932;SDS011;13731;51.166;4.474;2023-05-17T03:56:53;102.25;;;96.47;;
25932;SDS011;13731;51.166;4.474;2023-05-17T03:59:19;106.82;;;100.53;;
25932;SDS011;13731;51.166;4.474;2023-05-17T04:01:45;104.90;;;98.95;;
25932;SDS011;13731;51.166;4.474;2023-05-17T04:04:12;96.38;;;90.60;;
25932;SDS011;13731;51.166;4.474;2023-05-17T04:06:39;96.50;;;90.45;;
25932;SDS011;13731;51.166;4.474;2023-05-17T04:09:05;90.50;;;83.82;;
25932;SDS011;13731;51.166;4.474;2023-05-17T04:11:32;88.53;;;82.85;;
25932;SDS011;13731;51.166;4.474;2023-05-17T04:13:58;84.57;;;79.32;;
25932;SDS011;13731;51.166;4.474;2023-05-17T04:16:24;87.03;;;81.30;;
25932;SDS011;13731;51.166;4.474;2023-05-17T04:18:51;85.47;;;79.88;;
25932;SDS011;13731;51.166;4.474;2023-05-17T04:21:17;100.93;;;93.97;;
25932;SDS011;13731;51.166;4.474;2023-05-17T04:23:44;97.10;;;90.68;;
25932;SDS011;13731;51.166;4.474;2023-05-17T04:26:10;98.50;;;91.90;;
25932;SDS011;13731;51.166;4.474;2023-05-17T04:28:37;97.13;;;90.93;;
25932;SDS011;13731;51.166;4.474;2023-05-17T04:31:07;102.25;;;95.68;;
25932;SDS011;13731;51.166;4.474;2023-05-17T04:33:33;101.38;;;94.85;;
25932;SDS011;13731;51.166;4.474;2023-05-17T04:36:01;93.93;;;87.63;;
25932;SDS011;13731;51.166;4.474;2023-05-17T04:38:29;99.10;;;92.50;;
25932;SDS011;13731;51.166;4.474;2023-05-17T04:41:02;93.82;;;87.68;;
25932;SDS011;13731;51.166;4.474;2023-05-17T04:43:35;95.32;;;88.28;;
25932;SDS011;13731;51.166;4.474;2023-05-17T04:46:04;89.05;;;83.07;;
25932;SDS011;13731;51.166;4.474;2023-05-17T04:48:31;89.57;;;83.90;;
25932;SDS011;13731;51.166;4.474;2023-05-17T04:51:00;86.05;;;80.57;;
25932;SDS011;13731;51.166;4.474;2023-05-17T04:53:28;90.28;;;84.57;;
25932;SDS011;13731;51.166;4.474;2023-05-17T04:55:56;82.53;;;75.82;;
25932;SDS011;13731;51.166;4.474;2023-05-17T04:58:24;78.60;;;72.45;;
25932;SDS011;13731;51.166;4.474;2023-05-17T05:00:53;105.40;;;82.32;;
25932;SDS011;13731;51.166;4.474;2023-05-17T05:03:21;156.98;;;75.40;;
25932;SDS011;13731;51.166;4.474;2023-05-17T05:05:48;72.78;;;65.97;;
25932;SDS011;13731;51.166;4.474;2023-05-17T05:08:14;105.38;;;66.65;;
25932;SDS011;13731;51.166;4.474;2023-05-17T05:10:42;113.30;;;72.35;;
25932;SDS011;13731;51.166;4.474;2023-05-17T05:13:09;61.33;;;55.25;;
25932;SDS011;13731;51.166;4.474;2023-05-17T05:15:35;64.20;;;58.78;;
25932;SDS011;13731;51.166;4.474;2023-05-17T05:18:02;59.83;;;54.72;;
25932;SDS011;13731;51.166;4.474;2023-05-17T05:20:29;56.55;;;52.58;;
25932;SDS011;13731;51.166;4.474;2023-05-17T05:22:56;59.45;;;55.20;;
25932;SDS011;13731;51.166;4.474;2023-05-17T05:25:23;55.83;;;51.60;;
25932;SDS011;13731;51.166;4.474;2023-05-17T05:27:49;60.40;;;55.70;;
25932;SDS011;13731;51.166;4.474;2023-05-17T05:30:15;60.50;;;55.47;;
25932;SDS011;13731;51.166;4.474;2023-05-17T05:32:48;56.33;;;52.47;;
25932;SDS011;13731;51.166;4.474;2023-05-17T05:35:15;59.22;;;54.95;;
25932;SDS011;13731;51.166;4.474;2023-05-17T05:37:42;61.63;;;57.08;;
25932;SDS011;13731;51.166;4.474;2023-05-17T05:40:09;60.13;;;55.35;;
25932;SDS011;13731;51.166;4.474;2023-05-17T05:42:35;65.50;;;60.78;;
25932;SDS011;13731;51.166;4.474;2023-05-17T05:45:02;70.60;;;65.75;;
25932;SDS011;13731;51.166;4.474;2023-05-17T05:47:28;73.35;;;68.95;;
25932;SDS011;13731;51.166;4.474;2023-05-17T05:49:54;60.67;;;56.55;;
25932;SDS011;13731;51.166;4.474;2023-05-17T05:52:19;55.50;;;51.85;;
25932;SDS011;13731;51.166;4.474;2023-05-17T05:54:45;48.83;;;44.65;;
25932;SDS011;13731;51.166;4.474;2023-05-17T05:57:11;49.47;;;45.03;;
25932;SDS011;13731;51.166;4.474;2023-05-17T05:59:38;47.95;;;44.45;;
25932;SDS011;13731;51.166;4.474;2023-05-17T06:02:04;50.60;;;46.83;;
25932;SDS011;13731;51.166;4.474;2023-05-17T06:04:30;55.33;;;51.05;;
25932;SDS011;13731;51.166;4.474;2023-05-17T06:06:56;52.97;;;49.17;;
25932;SDS011;13731;51.166;4.474;2023-05-17T06:09:22;56.53;;;52.83;;
25932;SDS011;13731;51.166;4.474;2023-05-17T06:11:49;54.67;;;50.92;;
25932;SDS011;13731;51.166;4.474;2023-05-17T06:14:16;54.75;;;51.05;;
25932;SDS011;13731;51.166;4.474;2023-05-17T06:16:42;54.20;;;50.53;;
25932;SDS011;13731;51.166;4.474;2023-05-17T06:19:08;53.80;;;50.13;;
25932;SDS011;13731;51.166;4.474;2023-05-17T06:21:34;49.47;;;46.30;;
25932;SDS011;13731;51.166;4.474;2023-05-17T06:24:00;55.33;;;51.25;;
25932;SDS011;13731;51.166;4.474;2023-05-17T06:26:25;52.08;;;48.58;;
25932;SDS011;13731;51.166;4.474;2023-05-17T06:28:51;54.10;;;50.00;;
25932;SDS011;13731;51.166;4.474;2023-05-17T06:31:17;48.50;;;44.67;;
25932;SDS011;13731;51.166;4.474;2023-05-17T06:33:43;52.58;;;48.88;;
25932;SDS011;13731;51.166;4.474;2023-05-17T06:36:09;55.05;;;51.50;;
25932;SDS011;13731;51.166;4.474;2023-05-17T06:38:35;51.42;;;48.05;;
25932;SDS011;13731;51.166;4.474;2023-05-17T06:41:00;50.53;;;47.00;;
25932;SDS011;13731;51.166;4.474;2023-05-17T06:43:26;46.40;;;43.33;;
25932;SDS011;13731;51.166;4.474;2023-05-17T06:45:52;43.85;;;40.90;;
25932;SDS011;13731;51.166;4.474;2023-05-17T06:48:18;33.17;;;30.80;;
25932;SDS011;13731;51.166;4.474;2023-05-17T06:50:44;29.73;;;27.58;;
25932;SDS011;13731;51.166;4.474;2023-05-17T06:53:10;34.65;;;31.90;;
25932;SDS011;13731;51.166;4.474;2023-05-17T06:55:35;41.28;;;38.53;;
25932;SDS011;13731;51.166;4.474;2023-05-17T06:58:01;39.42;;;36.90;;
25932;SDS011;13731;51.166;4.474;2023-05-17T07:00:27;31.23;;;28.52;;
25932;SDS011;13731;51.166;4.474;2023-05-17T07:02:53;29.33;;;26.92;;
25932;SDS011;13731;51.166;4.474;2023-05-17T07:05:19;31.92;;;29.33;;
25932;SDS011;13731;51.166;4.474;2023-05-17T07:07:46;37.15;;;34.40;;
25932;SDS011;13731;51.166;4.474;2023-05-17T07:10:11;40.72;;;37.53;;
25932;SDS011;13731;51.166;4.474;2023-05-17T07:12:37;41.45;;;38.05;;
25932;SDS011;13731;51.166;4.474;2023-05-17T07:15:03;37.05;;;34.22;;
25932;SDS011;13731;51.166;4.474;2023-05-17T07:17:29;40.05;;;37.40;;
25932;SDS011;13731;51.166;4.474;2023-05-17T07:19:55;42.90;;;40.08;;
25932;SDS011;13731;51.166;4.474;2023-05-17T07:22:21;49.03;;;46.10;;
25932;SDS011;13731;51.166;4.474;2023-05-17T07:24:46;36.30;;;33.72;;
25932;SDS011;13731;51.166;4.474;2023-05-17T07:27:12;36.40;;;33.78;;
25932;SDS011;13731;51.166;4.474;2023-05-17T07:29:38;47.50;;;44.22;;
25932;SDS011;13731;51.166;4.474;2023-05-17T07:32:06;51.92;;;48.97;;
25932;SDS011;13731;51.166;4.474;2023-05-17T07:34:34;38.42;;;36.00;;
25932;SDS011;13731;51.166;4.474;2023-05-17T07:37:00;24.77;;;22.90;;
25932;SDS011;13731;51.166;4.474;2023-05-17T07:39:27;25.50;;;23.83;;
25932;SDS011;13731;51.166;4.474;2023-05-17T07:41:53;25.08;;;22.73;;
25932;SDS011;13731;51.166;4.474;2023-05-17T07:44:19;28.77;;;26.52;;
25932;SDS011;13731;51.166;4.474;2023-05-17T07:46:46;27.35;;;25.77;;
25932;SDS011;13731;51.166;4.474;2023-05-17T07:49:13;22.23;;;20.65;;
25932;SDS011;13731;51.166;4.474;2023-05-17T07:51:39;26.63;;;24.70;;
25932;SDS011;13731;51.166;4.474;2023-05-17T07:54:05;23.02;;;21.25;;
25932;SDS011;13731;51.166;4.474;2023-05-17T07:56:31;23.30;;;21.88;;
25932;SDS011;13731;51.166;4.474;2023-05-17T07:58:58;26.70;;;24.98;;
25932;SDS011;13731;51.166;4.474;2023-05-17T08:01:24;28.40;;;26.42;;
25932;SDS011;13731;51.166;4.474;2023-05-17T08:03:50;32.15;;;30.35;;
25932;SDS011;13731;51.166;4.474;2023-05-17T08:06:16;30.77;;;29.02;;
25932;SDS011;13731;51.166;4.474;2023-05-17T08:08:42;29.45;;;27.55;;
25932;SDS011;13731;51.166;4.474;2023-05-17T08:11:09;24.45;;;22.73;;
25932;SDS011;13731;51.166;4.474;2023-05-17T08:13:36;24.75;;;22.88;;
25932;SDS011;13731;51.166;4.474;2023-05-17T08:16:02;20.35;;;18.88;;
25932;SDS011;13731;51.166;4.474;2023-05-17T08:18:32;20.27;;;18.70;;
25932;SDS011;13731;51.166;4.474;2023-05-17T08:20:58;20.60;;;19.15;;
25932;SDS011;13731;51.166;4.474;2023-05-17T08:23:24;20.98;;;19.17;;
25932;SDS011;13731;51.166;4.474;2023-05-17T08:25:50;59.00;;;55.60;;
25932;SDS011;13731;51.166;4.474;2023-05-17T08:28:16;19.38;;;17.52;;
25932;SDS011;13731;51.166;4.474;2023-05-17T08:30:42;22.70;;;21.00;;
25932;SDS011;13731;51.166;4.474;2023-05-17T08:33:08;21.40;;;19.05;;
25932;SDS011;13731;51.166;4.474;2023-05-17T08:35:35;24.63;;;22.60;;
25932;SDS011;13731;51.166;4.474;2023-05-17T08:38:01;20.90;;;19.05;;
25932;SDS011;13731;51.166;4.474;2023-05-17T08:40:27;22.15;;;20.08;;
25932;SDS011;13731;51.166;4.474;2023-05-17T08:42:53;24.23;;;21.40;;
25932;SDS011;13731;51.166;4.474;2023-05-17T08:45:18;24.98;;;22.65;;
25932;SDS011;13731;51.166;4.474;2023-05-17T08:47:46;28.42;;;26.25;;
25932;SDS011;13731;51.166;4.474;2023-05-17T08:50:13;28.60;;;26.60;;
25932;SDS011;13731;51.166;4.474;2023-05-17T08:52:40;33.70;;;30.92;;
25932;SDS011;13731;51.166;4.474;2023-05-17T08:57:35;31.65;;;29.77;;
25932;SDS011;13731;51.166;4.474;2023-05-17T09:00:03;28.52;;;26.63;;
25932;SDS011;13731;51.166;4.474;2023-05-17T09:02:37;26.60;;;24.52;;
25932;SDS011;13731;51.166;4.474;2023-05-17T09:05:04;25.95;;;24.33;;
25932;SDS011;13731;51.166;4.474;2023-05-17T09:07:31;25.00;;;23.20;;
25932;SDS011;13731;51.166;4.474;2023-05-17T09:09:57;28.73;;;26.52;;
25932;SDS011;13731;51.166;4.474;2023-05-17T09:12:23;22.33;;;20.80;;
25932;SDS011;13731;51.166;4.474;2023-05-17T09:14:49;28.05;;;25.85;;
25932;SDS011;13731;51.166;4.474;2023-05-17T09:17:16;19.75;;;18.00;;
25932;SDS011;13731;51.166;4.474;2023-05-17T09:19:44;22.50;;;18.57;;
25932;SDS011;13731;51.166;4.474;2023-05-17T09:22:12;18.25;;;16.45;;
25932;SDS011;13731;51.166;4.474;2023-05-17T09:24:40;19.08;;;17.83;;
25932;SDS011;13731;51.166;4.474;2023-05-17T09:27:06;18.30;;;16.63;;
25932;SDS011;13731;51.166;4.474;2023-05-17T09:29:32;27.30;;;25.13;;
25932;SDS011;13731;51.166;4.474;2023-05-17T09:32:11;17.95;;;16.45;;
25932;SDS011;13731;51.166;4.474;2023-05-17T09:34:39;18.95;;;17.45;;
25932;SDS011;13731;51.166;4.474;2023-05-17T09:37:09;23.35;;;21.20;;
25932;SDS011;13731;51.166;4.474;2023-05-17T09:39:38;16.38;;;14.85;;
25932;SDS011;13731;51.166;4.474;2023-05-17T09:42:04;16.15;;;14.45;;
25932;SDS011;13731;51.166;4.474;2023-05-17T09:44:30;16.45;;;14.85;;
25932;SDS011;13731;51.166;4.474;2023-05-17T09:47:09;18.27;;;16.73;;
25932;SDS011;13731;51.166;4.474;2023-05-17T09:49:35;15.90;;;14.52;;
25932;SDS011;13731;51.166;4.474;2023-05-17T09:52:05;16.38;;;15.00;;
25932;SDS011;13731;51.166;4.474;2023-05-17T09:54:36;17.08;;;15.30;;
25932;SDS011;13731;51.166;4.474;2023-05-17T09:57:05;18.75;;;17.45;;
25932;SDS011;13731;51.166;4.474;2023-05-17T09:59:33;19.52;;;17.73;;
25932;SDS011;13731;51.166;4.474;2023-05-17T10:02:00;17.98;;;16.27;;
25932;SDS011;13731;51.166;4.474;2023-05-17T10:04:31;17.92;;;16.42;;
25932;SDS011;13731;51.166;4.474;2023-05-17T10:07:01;18.48;;;16.80;;
25932;SDS011;13731;51.166;4.474;2023-05-17T10:09:28;17.30;;;16.15;;
25932;SDS011;13731;51.166;4.474;2023-05-17T10:11:59;16.80;;;15.43;;
25932;SDS011;13731;51.166;4.474;2023-05-17T10:14:27;16.42;;;15.00;;
25932;SDS011;13731;51.166;4.474;2023-05-17T10:16:57;22.23;;;17.80;;
25932;SDS011;13731;51.166;4.474;2023-05-17T10:19:26;17.38;;;14.90;;
25932;SDS011;13731;51.166;4.474;2023-05-17T10:21:52;15.23;;;14.23;;
25932;SDS011;13731;51.166;4.474;2023-05-17T10:24:19;17.67;;;14.10;;
25932;SDS011;13731;51.166;4.474;2023-05-17T10:26:46;15.43;;;14.20;;
25932;SDS011;13731;51.166;4.474;2023-05-17T10:29:14;21.40;;;13.82;;
25932;SDS011;13731;51.166;4.474;2023-05-17T10:31:41;15.75;;;14.20;;
25932;SDS011;13731;51.166;4.474;2023-05-17T10:34:09;20.13;;;18.77;;
25932;SDS011;13731;51.166;4.474;2023-05-17T10:36:35;19.33;;;15.90;;
25932;SDS011;13731;51.166;4.474;2023-05-17T10:39:02;15.60;;;14.13;;
25932;SDS011;13731;51.166;4.474;2023-05-17T10:41:32;17.08;;;11.52;;
25932;SDS011;13731;51.166;4.474;2023-05-17T10:44:00;10.82;;;9.70;;
25932;SDS011;13731;51.166;4.474;2023-05-17T10:46:29;9.23;;;8.05;;
25932;SDS011;13731;51.166;4.474;2023-05-17T10:48:56;12.27;;;8.52;;
25932;SDS011;13731;51.166;4.474;2023-05-17T10:51:25;13.52;;;9.07;;
25932;SDS011;13731;51.166;4.474;2023-05-17T10:54:09;11.75;;;8.63;;
25932;SDS011;13731;51.166;4.474;2023-05-17T10:56:40;11.70;;;7.43;;
25932;SDS011;13731;51.166;4.474;2023-05-17T11:01:53;19.88;;;8.95;;
25932;SDS011;13731;51.166;4.474;2023-05-17T11:04:24;10.02;;;7.20;;
25932;SDS011;13731;51.166;4.474;2023-05-17T11:09:45;12.25;;;11.07;;
25932;SDS011;13731;51.166;4.474;2023-05-17T11:12:14;11.18;;;10.13;;
25932;SDS011;13731;51.166;4.474;2023-05-17T11:14:42;13.82;;;8.25;;
25932;SDS011;13731;51.166;4.474;2023-05-17T11:17:11;9.40;;;8.45;;
25932;SDS011;13731;51.166;4.474;2023-05-17T11:19:47;8.55;;;7.75;;
25932;SDS011;13731;51.166;4.474;2023-05-17T11:22:42;8.00;;;7.40;;
25932;SDS011;13731;51.166;4.474;2023-05-17T11:25:27;7.78;;;7.18;;
25932;SDS011;13731;51.166;4.474;2023-05-17T11:30:39;8.02;;;7.25;;
25932;SDS011;13731;51.166;4.474;2023-05-17T11:33:07;8.02;;;7.35;;
25932;SDS011;13731;51.166;4.474;2023-05-17T11:35:34;11.18;;;8.10;;
25932;SDS011;13731;51.166;4.474;2023-05-17T11:40:47;8.27;;;7.63;;
25932;SDS011;13731;51.166;4.474;2023-05-17T11:43:20;9.13;;;7.90;;
25932;SDS011;13731;51.166;4.474;2023-05-17T11:45:48;8.27;;;7.57;;
25932;SDS011;13731;51.166;4.474;2023-05-17T11:48:16;9.70;;;8.80;;
25932;SDS011;13731;51.166;4.474;2023-05-17T11:53:11;10.35;;;9.70;;
25932;SDS011;13731;51.166;4.474;2023-05-17T11:55:42;9.57;;;8.88;;
25932;SDS011;13731;51.166;4.474;2023-05-17T11:58:10;10.27;;;9.43;;
25932;SDS011;13731;51.166;4.474;2023-05-17T12:00:36;10.63;;;9.82;;
25932;SDS011;13731;51.166;4.474;2023-05-17T12:03:19;12.07;;;9.77;;
25932;SDS011;13731;51.166;4.474;2023-05-17T12:05:47;11.50;;;9.93;;
25932;SDS011;13731;51.166;4.474;2023-05-17T12:08:14;11.88;;;9.68;;
25932;SDS011;13731;51.166;4.474;2023-05-17T12:10:51;9.25;;;8.25;;
25932;SDS011;13731;51.166;4.474;2023-05-17T12:13:17;12.98;;;12.00;;
25932;SDS011;13731;51.166;4.474;2023-05-17T12:15:46;11.77;;;10.73;;
25932;SDS011;13731;51.166;4.474;2023-05-17T12:18:15;11.90;;;11.18;;
25932;SDS011;13731;51.166;4.474;2023-05-17T12:20:54;14.35;;;13.40;;
25932;SDS011;13731;51.166;4.474;2023-05-17T12:23:25;12.05;;;11.23;;
25932;SDS011;13731;51.166;4.474;2023-05-17T12:26:05;12.38;;;11.13;;
25932;SDS011;13731;51.166;4.474;2023-05-17T12:28:39;11.02;;;10.23;;
25932;SDS011;13731;51.166;4.474;2023-05-17T12:31:13;9.40;;;7.95;;
25932;SDS011;13731;51.166;4.474;2023-05-17T12:33:42;7.72;;;7.07;;
25932;SDS011;13731;51.166;4.474;2023-05-17T12:36:09;10.13;;;9.38;;
25932;SDS011;13731;51.166;4.474;2023-05-17T12:38:37;11.30;;;10.40;;
25932;SDS011;13731;51.166;4.474;2023-05-17T12:41:08;10.38;;;9.60;;
25932;SDS011;13731;51.166;4.474;2023-05-17T12:43:37;8.27;;;6.97;;
25932;SDS011;13731;51.166;4.474;2023-05-17T12:46:04;11.98;;;10.93;;
25932;SDS011;13731;51.166;4.474;2023-05-17T12:48:36;10.88;;;10.10;;
25932;SDS011;13731;51.166;4.474;2023-05-17T12:51:13;8.98;;;8.20;;
25932;SDS011;13731;51.166;4.474;2023-05-17T12:53:41;11.50;;;10.40;;
25932;SDS011;13731;51.166;4.474;2023-05-17T12:56:21;8.98;;;8.38;;
25932;SDS011;13731;51.166;4.474;2023-05-17T12:59:10;9.55;;;8.95;;
25932;SDS011;13731;51.166;4.474;2023-05-17T13:01:45;8.60;;;7.88;;
25932;SDS011;13731;51.166;4.474;2023-05-17T13:04:28;7.40;;;6.93;;
25932;SDS011;13731;51.166;4.474;2023-05-17T13:06:59;8.73;;;8.02;;
25932;SDS011;13731;51.166;4.474;2023-05-17T13:09:26;9.13;;;7.35;;
25932;SDS011;13731;51.166;4.474;2023-05-17T13:11:55;7.78;;;7.25;;
25932;SDS011;13731;51.166;4.474;2023-05-17T13:17:07;7.97;;;7.13;;
25932;SDS011;13731;51.166;4.474;2023-05-17T13:19:34;12.63;;;7.97;;
25932;SDS011;13731;51.166;4.474;2023-05-17T13:22:01;7.40;;;6.80;;
25932;SDS011;13731;51.166;4.474;2023-05-17T13:24:29;7.78;;;6.75;;
25932;SDS011;13731;51.166;4.474;2023-05-17T13:26:57;9.07;;;8.48;;
25932;SDS011;13731;51.166;4.474;2023-05-17T13:29:23;8.80;;;7.57;;
25932;SDS011;13731;51.166;4.474;2023-05-17T13:31:50;10.10;;;6.82;;
25932;SDS011;13731;51.166;4.474;2023-05-17T13:34:17;7.75;;;6.65;;
25932;SDS011;13731;51.166;4.474;2023-05-17T13:36:45;8.40;;;7.70;;
25932;SDS011;13731;51.166;4.474;2023-05-17T13:39:11;8.85;;;8.10;;
25932;SDS011;13731;51.166;4.474;2023-05-17T13:41:37;7.47;;;6.78;;
25932;SDS011;13731;51.166;4.474;2023-05-17T13:44:04;8.57;;;7.57;;
25932;SDS011;13731;51.166;4.474;2023-05-17T13:46:31;8.95;;;7.93;;
25932;SDS011;13731;51.166;4.474;2023-05-17T13:48:57;9.10;;;7.85;;
25932;SDS011;13731;51.166;4.474;2023-05-17T13:51:23;8.20;;;7.50;;
25932;SDS011;13731;51.166;4.474;2023-05-17T13:53:49;10.23;;;9.25;;
25932;SDS011;13731;51.166;4.474;2023-05-17T13:56:16;8.30;;;7.55;;
25932;SDS011;13731;51.166;4.474;2023-05-17T13:58:42;11.30;;;8.02;;
25932;SDS011;13731;51.166;4.474;2023-05-17T14:01:08;7.65;;;6.93;;
25932;SDS011;13731;51.166;4.474;2023-05-17T14:03:33;7.28;;;6.10;;
25932;SDS011;13731;51.166;4.474;2023-05-17T14:06:01;6.78;;;5.50;;
25932;SDS011;13731;51.166;4.474;2023-05-17T14:08:28;7.20;;;5.60;;
25932;SDS011;13731;51.166;4.474;2023-05-17T14:10:54;6.65;;;6.20;;
25932;SDS011;13731;51.166;4.474;2023-05-17T14:13:20;7.18;;;6.60;;
25932;SDS011;13731;51.166;4.474;2023-05-17T14:15:46;7.10;;;6.60;;
25932;SDS011;13731;51.166;4.474;2023-05-17T14:18:12;6.82;;;6.43;;
25932;SDS011;13731;51.166;4.474;2023-05-17T14:20:38;7.07;;;6.57;;
25932;SDS011;13731;51.166;4.474;2023-05-17T14:23:04;10.20;;;9.40;;
25932;SDS011;13731;51.166;4.474;2023-05-17T14:25:30;9.10;;;7.03;;
25932;SDS011;13731;51.166;4.474;2023-05-17T14:27:56;8.55;;;7.75;;
25932;SDS011;13731;51.166;4.474;2023-05-17T14:30:22;7.93;;;7.43;;
25932;SDS011;13731;51.166;4.474;2023-05-17T14:32:49;9.25;;;7.93;;
25932;SDS011;13731;51.166;4.474;2023-05-17T14:35:15;6.88;;;6.28;;
25932;SDS011;13731;51.166;4.474;2023-05-17T14:40:10;10.18;;;7.97;;
25932;SDS011;13731;51.166;4.474;2023-05-17T14:42:36;10.55;;;9.20;;
25932;SDS011;13731;51.166;4.474;2023-05-17T14:45:02;7.55;;;6.78;;
25932;SDS011;13731;51.166;4.474;2023-05-17T14:47:29;7.68;;;7.18;;
25932;SDS011;13731;51.166;4.474;2023-05-17T14:49:54;8.75;;;7.93;;
25932;SDS011;13731;51.166;4.474;2023-05-17T14:52:20;7.63;;;7.07;;
25932;SDS011;13731;51.166;4.474;2023-05-17T14:54:46;9.95;;;8.35;;
25932;SDS011;13731;51.166;4.474;2023-05-17T14:57:12;8.85;;;7.30;;
25932;SDS011;13731;51.166;4.474;2023-05-17T14:59:38;8.25;;;7.63;;
25932;SDS011;13731;51.166;4.474;2023-05-17T15:02:04;9.38;;;7.40;;
25932;SDS011;13731;51.166;4.474;2023-05-17T15:04:30;12.77;;;7.55;;
25932;SDS011;13731;51.166;4.474;2023-05-17T15:06:56;9.13;;;6.63;;